sensor_id;sensor_type;location;lat;lon;timestamp;pressure;altitude;pressure_sealevel;temperature;humidity
30554;BME280;17335;50.720;7.452;2023-05-09T00:00:23;99617.19;;;13.44;100.00
30554;BME280;17335;50.720;7.452;2023-05-09T00:02:50;99612.31;;;13.47;100.00
30554;BME280;17335;50.720;7.452;2023-05-09T00:05:17;99621.59;;;13.45;100.00
30554;BME280;17335;50.720;7.452;2023-05-09T00:07:43;99616.34;;;13.43;100.00
30554;BME280;17335;50.720;7.452;2023-05-09T00:10:10;99612.31;;;13.47;100.00
30554;BME280;17335;50.720;7.452;2023-05-09T00:12:37;99606.19;;;13.37;100.00
30554;BME280;17335;50.720;7.452;2023-05-09T00:15:04;99599.63;;;13.40;100.00
30554;BME280;17335;50.720;7.452;2023-05-09T00:17:34;99594.25;;;13.40;100.00
30554;BME280;17335;50.720;7.452;2023-05-09T00:20:01;99590.88;;;13.38;100.00
30554;BME280;17335;50.720;7.452;2023-05-09T00:22:30;99589.00;;;13.38;100.00
30554;BME280;17335;50.720;7.452;2023-05-09T00:24:56;99582.94;;;13.36;100.00
30554;BME280;17335;50.720;7.452;2023-05-09T00:27:23;99573.81;;;13.37;100.00
30554;BME280;17335;50.720;7.452;2023-05-09T00:29:50;99573.44;;;13.32;100.00
30554;BME280;17335;50.720;7.452;2023-05-09T00:32:16;99560.56;;;13.26;100.00
30554;BME280;17335;50.720;7.452;2023-05-09T00:34:43;99556.97;;;13.17;100.00
30554;BME280;17335;50.720;7.452;2023-05-09T00:37:09;99563.34;;;13.16;100.00
30554;BME280;17335;50.720;7.452;2023-05-09T00:39:36;99562.00;;;13.12;100.00
30554;BME280;17335;50.720;7.452;2023-05-09T00:42:03;99555.03;;;13.09;100.00
30554;BME280;17335;50.720;7.452;2023-05-09T00:44:30;99554.34;;;13.07;100.00
30554;BME280;17335;50.720;7.452;2023-05-09T00:46:56;99548.28;;;13.05;100.00
30554;BME280;17335;50.720;7.452;2023-05-09T00:49:23;99550.28;;;13.03;100.00
30554;BME280;17335;50.720;7.452;2023-05-09T00:51:50;99547.25;;;13.06;100.00
30554;BME280;17335;50.720;7.452;2023-05-09T00:54:17;99546.44;;;13.06;100.00
30554;BME280;17335;50.720;7.452;2023-05-09T00:56:44;99549.19;;;12.96;100.00
30554;BME280;17335;50.720;7.452;2023-05-09T00:59:10;99536.06;;;12.93;100.00
30554;BME280;17335;50.720;7.452;2023-05-09T01:01:37;99537.06;;;12.92;100.00
30554;BME280;17335;50.720;7.452;2023-05-09T01:04:04;99533.38;;;12.93;100.00
30554;BME280;17335;50.720;7.452;2023-05-09T01:11:58;99530.72;;;13.01;100.00
30554;BME280;17335;50.720;7.452;2023-05-09T01:14:41;99526.66;;;12.97;100.00
30554;BME280;17335;50.720;7.452;2023-05-09T01:17:57;99535.41;;;12.99;100.00
30554;BME280;17335;50.720;7.452;2023-05-09T01:20:29;99527.03;;;13.02;100.00
30554;BME280;17335;50.720;7.452;2023-05-09T01:26:34;99526.41;;;13.08;100.00
30554;BME280;17335;50.720;7.452;2023-05-09T01:31:45;99519.75;;;13.21;100.00
30554;BME280;17335;50.720;7.452;2023-05-09T01:34:16;99513.50;;;13.20;100.00
30554;BME280;17335;50.720;7.452;2023-05-09T01:36:46;99511.69;;;13.21;100.00
30554;BME280;17335;50.720;7.452;2023-05-09T01:39:16;99514.69;;;13.18;100.00
30554;BME280;17335;50.720;7.452;2023-05-09T01:41:44;99517.84;;;13.13;100.00
30554;BME280;17335;50.720;7.452;2023-05-09T01:44:12;99513.94;;;13.07;100.00
30554;BME280;17335;50.720;7.452;2023-05-09T01:46:42;99505.84;;;13.07;100.00
30554;BME280;17335;50.720;7.452;2023-05-09T01:49:10;99502.53;;;13.13;100.00
30554;BME280;17335;50.720;7.452;2023-05-09T01:51:37;99508.53;;;13.07;100.00
30554;BME280;17335;50.720;7.452;2023-05-09T01:54:08;99504.84;;;13.08;100.00
30554;BME280;17335;50.720;7.452;2023-05-09T01:56:36;99502.31;;;13.07;100.00
30554;BME280;17335;50.720;7.452;2023-05-09T01:59:05;99508.84;;;13.04;100.00
30554;BME280;17335;50.720;7.452;2023-05-09T02:01:33;99502.47;;;13.05;100.00
30554;BME280;17335;50.720;7.452;2023-05-09T02:04:02;99492.16;;;13.01;100.00
30554;BME280;17335;50.720;7.452;2023-05-09T02:06:29;99491.00;;;13.03;100.00
30554;BME280;17335;50.720;7.452;2023-05-09T02:08:57;99496.91;;;13.07;100.00
30554;BME280;17335;50.720;7.452;2023-05-09T02:11:24;99496.06;;;13.06;100.00
30554;BME280;17335;50.720;7.452;2023-05-09T02:13:51;99503.47;;;13.04;100.00
30554;BME280;17335;50.720;7.452;2023-05-09T02:16:18;99496.41;;;13.03;100.00
30554;BME280;17335;50.720;7.452;2023-05-09T02:18:46;99495.50;;;13.21;100.00
30554;BME280;17335;50.720;7.452;2023-05-09T02:21:13;99499.19;;;13.20;100.00
30554;BME280;17335;50.720;7.452;2023-05-09T02:23:40;99497.53;;;13.27;100.00
30554;BME280;17335;50.720;7.452;2023-05-09T02:26:07;99501.94;;;13.28;100.00
30554;BME280;17335;50.720;7.452;2023-05-09T02:28:34;99502.88;;;13.37;100.00
30554;BME280;17335;50.720;7.452;2023-05-09T02:31:04;99495.31;;;13.40;100.00
30554;BME280;17335;50.720;7.452;2023-05-09T02:33:34;99495.47;;;13.39;100.00
30554;BME280;17335;50.720;7.452;2023-05-09T02:36:02;99486.38;;;13.40;100.00
30554;BME280;17335;50.720;7.452;2023-05-09T02:38:31;99492.63;;;13.40;100.00
30554;BME280;17335;50.720;7.452;2023-05-09T02:40:57;99489.97;;;13.48;100.00
30554;BME280;17335;50.720;7.452;2023-05-09T02:43:24;99493.34;;;13.50;100.00
30554;BME280;17335;50.720;7.452;2023-05-09T02:45:51;99489.66;;;13.52;100.00
30554;BME280;17335;50.720;7.452;2023-05-09T02:48:18;99489.97;;;13.48;100.00
30554;BME280;17335;50.720;7.452;2023-05-09T02:50:45;99489.28;;;13.46;100.00
30554;BME280;17335;50.720;7.452;2023-05-09T02:53:11;99482.88;;;13.47;100.00
30554;BME280;17335;50.720;7.452;2023-05-09T02:55:38;99486.28;;;13.49;100.00
30554;BME280;17335;50.720;7.452;2023-05-09T02:58:05;99483.91;;;13.46;100.00
30554;BME280;17335;50.720;7.452;2023-05-09T03:00:39;99484.25;;;13.52;100.00
30554;BME280;17335;50.720;7.452;2023-05-09T03:03:06;99475.16;;;13.53;100.00
30554;BME280;17335;50.720;7.452;2023-05-09T03:05:33;99471.47;;;13.54;100.00
30554;BME280;17335;50.720;7.452;2023-05-09T03:08:00;99467.22;;;13.51;100.00
30554;BME280;17335;50.720;7.452;2023-05-09T03:10:26;99468.09;;;13.52;100.00
30554;BME280;17335;50.720;7.452;2023-05-09T03:12:53;99471.63;;;13.52;100.00
30554;BME280;17335;50.720;7.452;2023-05-09T03:15:19;99465.75;;;13.57;100.00
30554;BME280;17335;50.720;7.452;2023-05-09T03:17:47;99468.91;;;13.52;100.00
30554;BME280;17335;50.720;7.452;2023-05-09T03:20:14;99471.13;;;13.57;100.00
30554;BME280;17335;50.720;7.452;2023-05-09T03:22:41;99475.50;;;13.58;100.00
30554;BME280;17335;50.720;7.452;2023-05-09T03:25:07;99471.81;;;13.59;100.00
30554;BME280;17335;50.720;7.452;2023-05-09T03:27:34;99469.81;;;13.61;100.00
30554;BME280;17335;50.720;7.452;2023-05-09T03:30:01;99466.47;;;13.67;100.00
30554;BME280;17335;50.720;7.452;2023-05-09T03:32:28;99458.38;;;13.67;100.00
30554;BME280;17335;50.720;7.452;2023-05-09T03:34:54;99459.72;;;13.71;100.00
30554;BME280;17335;50.720;7.452;2023-05-09T03:37:21;99464.44;;;13.69;100.00
30554;BME280;17335;50.720;7.452;2023-05-09T03:39:47;99459.78;;;13.79;100.00
30554;BME280;17335;50.720;7.452;2023-05-09T03:42:13;99458.03;;;13.70;100.00
30554;BME280;17335;50.720;7.452;2023-05-09T03:44:40;99456.19;;;13.71;100.00
30554;BME280;17335;50.720;7.452;2023-05-09T03:47:07;99457.56;;;13.75;100.00
30554;BME280;17335;50.720;7.452;2023-05-09T03:49:33;99453.34;;;13.72;100.00
30554;BME280;17335;50.720;7.452;2023-05-09T03:52:00;99451.31;;;13.74;100.00
30554;BME280;17335;50.720;7.452;2023-05-09T03:54:27;99454.03;;;13.74;100.00
30554;BME280;17335;50.720;7.452;2023-05-09T03:56:54;99447.59;;;13.75;100.00
30554;BME280;17335;50.720;7.452;2023-05-09T03:59:20;99440.53;;;13.74;100.00
30554;BME280;17335;50.720;7.452;2023-05-09T04:01:47;99438.34;;;13.78;100.00
30554;BME280;17335;50.720;7.452;2023-05-09T04:04:14;99435.53;;;13.87;100.00
30554;BME280;17335;50.720;7.452;2023-05-09T04:06:41;99423.34;;;13.83;100.00
30554;BME280;17335;50.720;7.452;2023-05-09T04:09:07;99430.13;;;13.87;100.00
30554;BME280;17335;50.720;7.452;2023-05-09T04:11:34;99428.44;;;13.86;100.00
30554;BME280;17335;50.720;7.452;2023-05-09T04:14:01;99424.38;;;13.82;100.00
30554;BME280;17335;50.720;7.452;2023-05-09T04:16:32;99427.91;;;13.83;100.00
30554;BME280;17335;50.720;7.452;2023-05-09T04:19:00;99435.84;;;13.84;100.00
30554;BME280;17335;50.720;7.452;2023-05-09T04:21:26;99422.19;;;13.86;100.00
30554;BME280;17335;50.720;7.452;2023-05-09T04:23:53;99421.88;;;13.89;100.00
30554;BME280;17335;50.720;7.452;2023-05-09T04:26:20;99424.91;;;13.94;100.00
30554;BME280;17335;50.720;7.452;2023-05-09T04:28:48;99415.44;;;13.90;100.00
30554;BME280;17335;50.720;7.452;2023-05-09T04:31:14;99416.13;;;13.92;100.00
30554;BME280;17335;50.720;7.452;2023-05-09T04:33:41;99417.97;;;13.92;100.00
30554;BME280;17335;50.720;7.452;2023-05-09T04:36:08;99409.06;;;13.91;100.00
30554;BME280;17335;50.720;7.452;2023-05-09T04:38:35;99405.31;;;13.92;100.00
30554;BME280;17335;50.720;7.452;2023-05-09T04:41:02;99403.13;;;13.96;100.00
30554;BME280;17335;50.720;7.452;2023-05-09T04:43:29;99407.03;;;13.93;100.00
30554;BME280;17335;50.720;7.452;2023-05-09T04:45:56;99396.09;;;14.03;100.00
30554;BME280;17335;50.720;7.452;2023-05-09T04:48:23;99403.31;;;14.02;100.00
30554;BME280;17335;50.720;7.452;2023-05-09T04:50:49;99393.75;;;14.08;100.00
30554;BME280;17335;50.720;7.452;2023-05-09T04:53:16;99391.72;;;14.10;100.00
30554;BME280;17335;50.720;7.452;2023-05-09T04:55:42;99391.53;;;14.20;100.00
30554;BME280;17335;50.720;7.452;2023-05-09T04:58:09;99390.88;;;14.18;100.00
30554;BME280;17335;50.720;7.452;2023-05-09T05:00:35;99380.56;;;14.21;100.00
30554;BME280;17335;50.720;7.452;2023-05-09T05:03:02;99383.13;;;14.31;100.00
30554;BME280;17335;50.720;7.452;2023-05-09T05:05:29;99378.56;;;14.32;100.00
30554;BME280;17335;50.720;7.452;2023-05-09T05:07:59;99379.59;;;14.39;100.00
30554;BME280;17335;50.720;7.452;2023-05-09T05:10:26;99374.84;;;14.49;100.00
30554;BME280;17335;50.720;7.452;2023-05-09T05:12:52;99375.88;;;14.48;100.00
30554;BME280;17335;50.720;7.452;2023-05-09T05:15:19;99379.25;;;14.50;100.00
30554;BME280;17335;50.720;7.452;2023-05-09T05:17:46;99379.56;;;14.55;100.00
30554;BME280;17335;50.720;7.452;2023-05-09T05:20:13;99376.03;;;14.55;100.00
30554;BME280;17335;50.720;7.452;2023-05-09T05:22:40;99379.56;;;14.55;100.00
30554;BME280;17335;50.720;7.452;2023-05-09T05:25:07;99378.75;;;14.55;100.00
30554;BME280;17335;50.720;7.452;2023-05-09T05:27:34;99383.97;;;14.56;100.00
30554;BME280;17335;50.720;7.452;2023-05-09T05:30:00;99373.88;;;14.58;100.00
30554;BME280;17335;50.720;7.452;2023-05-09T05:32:27;99376.72;;;14.57;100.00
30554;BME280;17335;50.720;7.452;2023-05-09T05:34:53;99368.47;;;14.58;100.00
30554;BME280;17335;50.720;7.452;2023-05-09T05:37:20;99366.59;;;14.67;100.00
30554;BME280;17335;50.720;7.452;2023-05-09T05:39:46;99356.28;;;14.71;100.00
30554;BME280;17335;50.720;7.452;2023-05-09T05:42:13;99362.03;;;14.68;100.00
30554;BME280;17335;50.720;7.452;2023-05-09T05:44:40;99359.81;;;14.79;100.00
30554;BME280;17335;50.720;7.452;2023-05-09T05:47:06;99350.88;;;14.79;100.00
30554;BME280;17335;50.720;7.452;2023-05-09T05:49:32;99344.81;;;14.77;100.00
30554;BME280;17335;50.720;7.452;2023-05-09T05:52:02;99345.81;;;14.76;100.00
30554;BME280;17335;50.720;7.452;2023-05-09T05:54:28;99343.59;;;14.79;100.00
30554;BME280;17335;50.720;7.452;2023-05-09T05:56:55;99344.09;;;14.83;100.00
30554;BME280;17335;50.720;7.452;2023-05-09T05:59:21;99342.88;;;14.94;100.00
30554;BME280;17335;50.720;7.452;2023-05-09T06:01:48;99339.69;;;14.90;100.00
30554;BME280;17335;50.720;7.452;2023-05-09T06:04:14;99339.34;;;14.93;100.00
30554;BME280;17335;50.720;7.452;2023-05-09T06:06:42;99342.06;;;14.93;100.00
30554;BME280;17335;50.720;7.452;2023-05-09T06:09:09;99341.03;;;14.94;100.00
30554;BME280;17335;50.720;7.452;2023-05-09T06:11:35;99337.69;;;14.92;100.00
30554;BME280;17335;50.720;7.452;2023-05-09T06:14:02;99345.41;;;14.95;100.00
30554;BME280;17335;50.720;7.452;2023-05-09T06:16:29;99333.25;;;14.99;100.00
30554;BME280;17335;50.720;7.452;2023-05-09T06:18:55;99333.59;;;14.96;100.00
30554;BME280;17335;50.720;7.452;2023-05-09T06:21:22;99334.94;;;15.00;100.00
30554;BME280;17335;50.720;7.452;2023-05-09T06:23:48;99327.13;;;15.06;100.00
30554;BME280;17335;50.720;7.452;2023-05-09T06:26:31;99321.06;;;15.04;100.00
30554;BME280;17335;50.720;7.452;2023-05-09T06:28:58;99316.31;;;15.06;100.00
30554;BME280;17335;50.720;7.452;2023-05-09T06:31:24;99308.38;;;15.04;100.00
30554;BME280;17335;50.720;7.452;2023-05-09T06:33:51;99311.25;;;15.11;100.00
30554;BME280;17335;50.720;7.452;2023-05-09T06:36:19;99316.97;;;15.16;100.00
30554;BME280;17335;50.720;7.452;2023-05-09T06:38:45;99315.81;;;15.10;100.00
30554;BME280;17335;50.720;7.452;2023-05-09T06:41:12;99313.59;;;15.14;100.00
30554;BME280;17335;50.720;7.452;2023-05-09T06:43:39;99311.56;;;15.16;100.00
30554;BME280;17335;50.720;7.452;2023-05-09T06:46:05;99307.47;;;15.28;100.00
30554;BME280;17335;50.720;7.452;2023-05-09T06:48:32;99312.16;;;15.34;100.00
30554;BME280;17335;50.720;7.452;2023-05-09T06:50:58;99309.47;;;15.34;100.00
30554;BME280;17335;50.720;7.452;2023-05-09T06:53:25;99301.44;;;15.49;100.00
30554;BME280;17335;50.720;7.452;2023-05-09T06:55:52;99295.84;;;15.51;100.00
30554;BME280;17335;50.720;7.452;2023-05-09T06:58:18;99303.09;;;15.50;100.00
30554;BME280;17335;50.720;7.452;2023-05-09T07:00:45;99293.63;;;15.54;100.00
30554;BME280;17335;50.720;7.452;2023-05-09T07:03:12;99289.88;;;15.55;100.00
30554;BME280;17335;50.720;7.452;2023-05-09T07:05:39;99287.13;;;15.64;100.00
30554;BME280;17335;50.720;7.452;2023-05-09T07:08:06;99285.47;;;15.63;100.00
30554;BME280;17335;50.720;7.452;2023-05-09T07:10:32;99283.91;;;15.68;100.00
30554;BME280;17335;50.720;7.452;2023-05-09T07:12:59;99280.31;;;15.76;100.00
30554;BME280;17335;50.720;7.452;2023-05-09T07:15:25;99272.88;;;15.78;100.00
30554;BME280;17335;50.720;7.452;2023-05-09T07:18:07;99268.91;;;15.89;100.00
30554;BME280;17335;50.720;7.452;2023-05-09T07:20:34;99253.63;;;15.96;100.00
30554;BME280;17335;50.720;7.452;2023-05-09T07:23:04;99251.91;;;15.95;100.00
30554;BME280;17335;50.720;7.452;2023-05-09T07:25:31;99242.13;;;15.94;100.00
30554;BME280;17335;50.720;7.452;2023-05-09T07:27:59;99239.28;;;16.10;100.00
30554;BME280;17335;50.720;7.452;2023-05-09T07:30:26;99236.81;;;16.39;100.00
30554;BME280;17335;50.720;7.452;2023-05-09T07:32:52;99232.72;;;16.58;100.00
30554;BME280;17335;50.720;7.452;2023-05-09T07:35:19;99227.69;;;16.84;100.00
30554;BME280;17335;50.720;7.452;2023-05-09T07:37:46;99212.72;;;16.89;100.00
30554;BME280;17335;50.720;7.452;2023-05-09T07:40:13;99199.34;;;17.02;100.00
30554;BME280;17335;50.720;7.452;2023-05-09T07:42:40;99201.91;;;17.25;100.00
30554;BME280;17335;50.720;7.452;2023-05-09T07:45:08;99199.25;;;17.32;100.00
30554;BME280;17335;50.720;7.452;2023-05-09T07:47:36;99188.03;;;17.35;100.00
30554;BME280;17335;50.720;7.452;2023-05-09T07:50:02;99181.22;;;17.24;100.00
30554;BME280;17335;50.720;7.452;2023-05-09T07:52:29;99183.88;;;17.39;100.00
30554;BME280;17335;50.720;7.452;2023-05-09T07:54:56;99178.06;;;17.63;100.00
30554;BME280;17335;50.720;7.452;2023-05-09T07:57:22;99178.25;;;17.84;100.00
30554;BME280;17335;50.720;7.452;2023-05-09T07:59:49;99173.16;;;17.95;100.00
30554;BME280;17335;50.720;7.452;2023-05-09T08:02:16;99174.94;;;18.10;100.00
30554;BME280;17335;50.720;7.452;2023-05-09T08:04:43;99168.75;;;18.23;100.00
30554;BME280;17335;50.720;7.452;2023-05-09T08:07:14;99164.56;;;18.20;100.00
30554;BME280;17335;50.720;7.452;2023-05-09T08:09:41;99157.34;;;18.06;100.00
30554;BME280;17335;50.720;7.452;2023-05-09T08:12:08;99153.72;;;18.27;100.00
30554;BME280;17335;50.720;7.452;2023-05-09T08:14:34;99153.81;;;18.40;100.00
30554;BME280;17335;50.720;7.452;2023-05-09T08:17:01;99133.91;;;18.33;100.00
30554;BME280;17335;50.720;7.452;2023-05-09T08:19:27;99146.41;;;18.27;100.00
30554;BME280;17335;50.720;7.452;2023-05-09T08:21:54;99149.59;;;18.31;100.00
30554;BME280;17335;50.720;7.452;2023-05-09T08:24:21;99129.34;;;18.40;100.00
30554;BME280;17335;50.720;7.452;2023-05-09T08:26:47;99129.66;;;18.59;100.00
30554;BME280;17335;50.720;7.452;2023-05-09T08:29:14;99123.69;;;18.35;100.00
30554;BME280;17335;50.720;7.452;2023-05-09T08:31:42;99130.59;;;18.37;100.00
30554;BME280;17335;50.720;7.452;2023-05-09T08:34:08;99127.78;;;18.59;100.00
30554;BME280;17335;50.720;7.452;2023-05-09T08:36:35;99119.44;;;18.67;100.00
30554;BME280;17335;50.720;7.452;2023-05-09T08:39:01;99116.84;;;18.46;100.00
30554;BME280;17335;50.720;7.452;2023-05-09T08:41:32;99117.13;;;18.64;100.00
30554;BME280;17335;50.720;7.452;2023-05-09T08:44:01;99115.94;;;18.80;100.00
30554;BME280;17335;50.720;7.452;2023-05-09T08:46:32;99106.63;;;19.03;100.00
30554;BME280;17335;50.720;7.452;2023-05-09T08:49:04;99097.03;;;19.27;100.00
30554;BME280;17335;50.720;7.452;2023-05-09T08:51:31;99093.06;;;19.29;100.00
30554;BME280;17335;50.720;7.452;2023-05-09T08:53:58;99086.78;;;19.29;100.00
30554;BME280;17335;50.720;7.452;2023-05-09T08:56:26;99088.88;;;19.34;100.00
30554;BME280;17335;50.720;7.452;2023-05-09T08:58:53;99086.38;;;19.45;100.00
30554;BME280;17335;50.720;7.452;2023-05-09T09:01:21;99086.38;;;19.45;100.00
30554;BME280;17335;50.720;7.452;2023-05-09T09:03:50;99088.69;;;19.48;100.00
30554;BME280;17335;50.720;7.452;2023-05-09T09:06:17;99083.44;;;19.74;100.00
30554;BME280;17335;50.720;7.452;2023-05-09T09:08:45;99072.75;;;19.99;100.00
30554;BME280;17335;50.720;7.452;2023-05-09T09:11:14;99065.38;;;20.13;100.00
30554;BME280;17335;50.720;7.452;2023-05-09T09:13:42;99061.94;;;20.44;100.00
30554;BME280;17335;50.720;7.452;2023-05-09T09:16:19;99053.47;;;20.52;100.00
30554;BME280;17335;50.720;7.452;2023-05-09T09:18:46;99050.19;;;20.37;100.00
30554;BME280;17335;50.720;7.452;2023-05-09T09:21:15;99054.34;;;20.53;100.00
30554;BME280;17335;50.720;7.452;2023-05-09T09:23:45;99047.66;;;20.42;100.00
30554;BME280;17335;50.720;7.452;2023-05-09T09:26:15;99051.91;;;20.24;100.00
30554;BME280;17335;50.720;7.452;2023-05-09T09:28:42;99038.09;;;20.19;100.00
30554;BME280;17335;50.720;7.452;2023-05-09T09:31:19;99048.03;;;20.52;100.00
30554;BME280;17335;50.720;7.452;2023-05-09T09:33:47;99033.50;;;20.72;100.00
30554;BME280;17335;50.720;7.452;2023-05-09T09:36:14;99031.63;;;20.66;100.00
30554;BME280;17335;50.720;7.452;2023-05-09T09:38:41;99024.63;;;20.83;100.00
30554;BME280;17335;50.720;7.452;2023-05-09T09:41:11;99017.31;;;20.77;100.00
30554;BME280;17335;50.720;7.452;2023-05-09T09:43:44;99027.78;;;20.80;100.00
30554;BME280;17335;50.720;7.452;2023-05-09T09:46:12;99023.06;;;20.55;100.00
30554;BME280;17335;50.720;7.452;2023-05-09T09:48:45;99014.78;;;20.82;100.00
30554;BME280;17335;50.720;7.452;2023-05-09T09:51:16;99006.56;;;20.89;100.00
30554;BME280;17335;50.720;7.452;2023-05-09T09:53:44;99013.19;;;21.00;100.00
30554;BME280;17335;50.720;7.452;2023-05-09T09:56:10;98997.91;;;20.92;100.00
30554;BME280;17335;50.720;7.452;2023-05-09T09:58:37;98991.91;;;21.08;100.00
30554;BME280;17335;50.720;7.452;2023-05-09T10:01:12;98999.44;;;21.13;100.00
30554;BME280;17335;50.720;7.452;2023-05-09T10:03:46;98997.84;;;21.30;100.00
30554;BME280;17335;50.720;7.452;2023-05-09T10:06:15;98979.50;;;21.38;100.00
30554;BME280;17335;50.720;7.452;2023-05-09T10:08:43;98982.09;;;21.26;100.00
30554;BME280;17335;50.720;7.452;2023-05-09T10:11:12;98984.22;;;21.24;100.00
30554;BME280;17335;50.720;7.452;2023-05-09T10:13:39;98974.47;;;21.09;100.00
30554;BME280;17335;50.720;7.452;2023-05-09T10:16:07;98972.31;;;20.93;100.00
30554;BME280;17335;50.720;7.452;2023-05-09T10:18:34;98971.84;;;20.64;100.00
30554;BME280;17335;50.720;7.452;2023-05-09T10:21:02;98976.50;;;20.57;100.00
30554;BME280;17335;50.720;7.452;2023-05-09T10:23:31;98974.25;;;20.40;100.00
30554;BME280;17335;50.720;7.452;2023-05-09T10:28:37;98963.06;;;20.17;100.00
30554;BME280;17335;50.720;7.452;2023-05-09T10:31:16;98958.31;;;19.99;100.00
30554;BME280;17335;50.720;7.452;2023-05-09T10:33:47;98965.66;;;19.98;100.00
30554;BME280;17335;50.720;7.452;2023-05-09T10:36:17;98955.19;;;20.40;100.00
30554;BME280;17335;50.720;7.452;2023-05-09T10:38:43;98950.81;;;20.71;100.00
30554;BME280;17335;50.720;7.452;2023-05-09T10:41:12;98945.03;;;21.18;100.00
30554;BME280;17335;50.720;7.452;2023-05-09T10:43:40;98948.97;;;21.66;100.00
30554;BME280;17335;50.720;7.452;2023-05-09T10:46:08;98938.28;;;21.83;100.00
30554;BME280;17335;50.720;7.452;2023-05-09T10:48:35;98933.75;;;21.77;100.00
30554;BME280;17335;50.720;7.452;2023-05-09T10:51:03;98932.00;;;21.82;100.00
30554;BME280;17335;50.720;7.452;2023-05-09T10:53:44;98922.91;;;21.88;100.00
30554;BME280;17335;50.720;7.452;2023-05-09T10:56:31;98922.66;;;21.71;100.00
30554;BME280;17335;50.720;7.452;2023-05-09T10:58:59;98911.13;;;21.51;100.00
30554;BME280;17335;50.720;7.452;2023-05-09T11:03:57;98910.63;;;20.85;100.00
30554;BME280;17335;50.720;7.452;2023-05-09T11:06:48;98910.59;;;20.67;100.00
30554;BME280;17335;50.720;7.452;2023-05-09T11:09:36;98904.75;;;20.56;100.00
30554;BME280;17335;50.720;7.452;2023-05-09T11:12:12;98899.22;;;20.38;100.00
30554;BME280;17335;50.720;7.452;2023-05-09T11:14:44;98895.03;;;20.35;100.00
30554;BME280;17335;50.720;7.452;2023-05-09T11:22:28;98883.38;;;20.21;100.00
30554;BME280;17335;50.720;7.452;2023-05-09T11:25:04;98877.09;;;20.21;100.00
30554;BME280;17335;50.720;7.452;2023-05-09T11:27:44;98874.63;;;20.13;100.00
30554;BME280;17335;50.720;7.452;2023-05-09T11:30:13;98881.16;;;20.05;100.00
30554;BME280;17335;50.720;7.452;2023-05-09T11:32:46;98880.41;;;19.91;100.00
30554;BME280;17335;50.720;7.452;2023-05-09T11:35:17;98876.34;;;20.07;100.00
30554;BME280;17335;50.720;7.452;2023-05-09T11:37:48;98862.44;;;20.47;100.00
30554;BME280;17335;50.720;7.452;2023-05-09T11:40:19;98853.19;;;20.80;100.00
30554;BME280;17335;50.720;7.452;2023-05-09T11:42:48;98848.22;;;20.95;100.00
30554;BME280;17335;50.720;7.452;2023-05-09T11:45:16;98837.34;;;21.14;100.00
30554;BME280;17335;50.720;7.452;2023-05-09T11:47:44;98832.50;;;21.34;100.00
30554;BME280;17335;50.720;7.452;2023-05-09T11:50:12;98833.28;;;21.60;100.00
30554;BME280;17335;50.720;7.452;2023-05-09T11:52:39;98828.50;;;21.56;100.00
30554;BME280;17335;50.720;7.452;2023-05-09T11:55:09;98826.75;;;21.61;100.00
30554;BME280;17335;50.720;7.452;2023-05-09T11:57:43;98820.81;;;21.64;100.00
30554;BME280;17335;50.720;7.452;2023-05-09T12:00:10;98821.91;;;21.63;100.00
30554;BME280;17335;50.720;7.452;2023-05-09T12:02:38;98819.31;;;21.50;100.00
30554;BME280;17335;50.720;7.452;2023-05-09T12:05:09;98821.94;;;21.38;100.00
30554;BME280;17335;50.720;7.452;2023-05-09T12:07:37;98811.75;;;21.33;100.00
30554;BME280;17335;50.720;7.452;2023-05-09T12:10:10;98815.38;;;21.27;100.00
30554;BME280;17335;50.720;7.452;2023-05-09T12:12:42;98810.28;;;21.31;100.00
30554;BME280;17335;50.720;7.452;2023-05-09T12:15:10;98797.94;;;21.10;100.00
30554;BME280;17335;50.720;7.452;2023-05-09T12:17:39;98803.09;;;21.18;100.00
30554;BME280;17335;50.720;7.452;2023-05-09T12:20:07;98802.63;;;21.40;100.00
30554;BME280;17335;50.720;7.452;2023-05-09T12:22:35;98795.34;;;21.52;100.00
30554;BME280;17335;50.720;7.452;2023-05-09T12:25:07;98794.66;;;21.38;100.00
30554;BME280;17335;50.720;7.452;2023-05-09T12:27:36;98792.06;;;21.43;100.00
30554;BME280;17335;50.720;7.452;2023-05-09T12:30:04;98795.78;;;21.12;100.00
30554;BME280;17335;50.720;7.452;2023-05-09T12:32:36;98792.78;;;21.20;100.00
30554;BME280;17335;50.720;7.452;2023-05-09T12:35:08;98775.00;;;21.11;100.00
30554;BME280;17335;50.720;7.452;2023-05-09T12:37:36;98775.78;;;21.00;100.00
30554;BME280;17335;50.720;7.452;2023-05-09T12:40:09;98762.59;;;21.15;100.00
30554;BME280;17335;50.720;7.452;2023-05-09T12:42:38;98765.47;;;21.02;100.00
30554;BME280;17335;50.720;7.452;2023-05-09T12:45:07;98771.47;;;21.10;100.00
30554;BME280;17335;50.720;7.452;2023-05-09T12:47:35;98755.47;;;21.14;100.00
30554;BME280;17335;50.720;7.452;2023-05-09T12:50:05;98764.09;;;21.11;100.00
30554;BME280;17335;50.720;7.452;2023-05-09T12:52:37;98757.88;;;20.85;100.00
30554;BME280;17335;50.720;7.452;2023-05-09T12:55:24;98769.69;;;20.54;100.00
30554;BME280;17335;50.720;7.452;2023-05-09T12:57:59;98777.75;;;20.42;100.00
30554;BME280;17335;50.720;7.452;2023-05-09T13:00:26;98786.06;;;19.97;100.00
30554;BME280;17335;50.720;7.452;2023-05-09T13:02:52;98791.75;;;19.50;100.00
30554;BME280;17335;50.720;7.452;2023-05-09T13:05:21;98804.22;;;19.19;100.00
30554;BME280;17335;50.720;7.452;2023-05-09T13:07:55;98799.19;;;19.09;100.00
30554;BME280;17335;50.720;7.452;2023-05-09T13:10:23;98803.81;;;19.16;100.00
30554;BME280;17335;50.720;7.452;2023-05-09T13:12:52;98794.13;;;19.26;100.00
30554;BME280;17335;50.720;7.452;2023-05-09T13:15:20;98793.63;;;19.49;100.00
30554;BME280;17335;50.720;7.452;2023-05-09T13:17:49;98789.22;;;19.48;100.00